createdAt,value
2023-01-11T00:03:34.762Z,0.77
2023-01-11T00:08:36.496Z,0.77
2023-01-11T00:13:38.096Z,0.86
2023-01-11T00:18:41.089Z,0.94
2023-01-11T00:23:43.868Z,0.71
2023-01-11T00:28:48.420Z,0.74
2023-01-11T00:33:50.126Z,0.59
2023-01-11T00:38:53.808Z,0.49
2023-01-11T00:44:14.176Z,0.52
2023-01-11T00:49:15.848Z,0.41
2023-01-11T00:54:17.558Z,0.44
2023-01-11T00:59:19.459Z,0.55
2023-01-11T01:04:21.068Z,0.72
2023-01-11T01:09:22.763Z,0.74
2023-01-11T01:14:28.715Z,0.57
2023-01-11T01:19:31.556Z,0.76
2023-01-11T01:24:34.005Z,0.95
2023-01-11T01:29:35.599Z,0.96
2023-01-11T01:34:37.729Z,1.07
2023-01-11T01:39:39.319Z,1.10
2023-01-11T01:45:02.538Z,1.03
2023-01-11T01:50:12.983Z,0.85
2023-01-11T01:55:22.184Z,0.87
2023-01-11T02:00:23.995Z,1.05
2023-01-11T02:05:25.964Z,0.98
2023-01-11T02:10:28.910Z,0.90
2023-01-11T02:15:31.171Z,1.10
2023-01-11T02:20:43.249Z,1.21
2023-01-11T02:26:00.120Z,1.38
2023-01-11T02:31:16.692Z,1.51
2023-01-11T02:36:34.250Z,1.51
2023-01-11T02:42:20.331Z,1.48
2023-01-11T02:47:29.562Z,1.52
2023-01-11T02:53:00.482Z,1.50
2023-01-11T02:58:06.017Z,1.69
2023-01-11T03:03:24.960Z,2.00
2023-01-11T03:08:56.283Z,2.15
2023-01-11T03:14:20.130Z,2.31
2023-01-11T03:19:36.785Z,2.16
2023-01-11T03:24:41.170Z,2.28
2023-01-11T03:29:51.761Z,2.25
2023-01-11T03:35:08.311Z,2.34
2023-01-11T03:40:10.078Z,2.36
2023-01-11T03:45:11.800Z,2.16
2023-01-11T03:50:14.101Z,2.39
2023-01-11T03:55:16.841Z,2.33
2023-01-11T04:00:20.630Z,2.32
2023-01-11T04:05:22.436Z,2.28
2023-01-11T04:10:24.343Z,2.24
2023-01-11T04:15:26.070Z,2.33
2023-01-11T04:20:27.649Z,2.43
2023-01-11T04:25:29.392Z,2.58
2023-01-11T04:30:31.073Z,2.74
2023-01-11T04:35:32.709Z,2.75
2023-01-11T04:40:34.335Z,2.66
2023-01-11T04:45:35.986Z,2.84
2023-01-11T04:50:37.716Z,3.11
2023-01-11T04:55:39.347Z,3.18
2023-01-11T05:00:41.089Z,3.17
2023-01-11T05:05:42.702Z,2.94
2023-01-11T05:10:44.314Z,3.26
2023-01-11T05:15:46.099Z,3.42
2023-01-11T05:20:49.340Z,3.39
2023-01-11T05:25:50.922Z,3.38
2023-01-11T05:30:53.433Z,3.43
2023-01-11T05:36:04.492Z,3.41
2023-01-11T05:41:09.326Z,3.60
2023-01-11T05:46:10.967Z,3.58
2023-01-11T05:51:12.602Z,3.69
2023-01-11T05:56:14.214Z,3.49
2023-01-11T06:01:17.593Z,3.33
2023-01-11T06:06:20.674Z,3.57
2023-01-11T06:11:22.343Z,3.76
2023-01-11T06:16:24.148Z,3.67
2023-01-11T06:21:25.901Z,4.02
2023-01-11T06:26:27.510Z,4.10
2023-01-11T06:31:29.110Z,4.11
2023-01-11T06:36:30.737Z,4.20
2023-01-11T06:41:32.321Z,4.29
2023-01-11T06:46:34.035Z,4.52
2023-01-11T06:51:35.674Z,4.79
2023-01-11T06:56:37.277Z,4.77
2023-01-11T07:01:38.903Z,4.98
2023-01-11T07:06:40.579Z,5.19
2023-01-11T07:11:42.185Z,5.48
2023-01-11T07:16:43.787Z,5.83
2023-01-11T07:21:45.475Z,6.00
2023-01-11T07:26:47.101Z,5.97
2023-01-11T07:31:48.741Z,6.08
2023-01-11T07:36:50.493Z,6.18
2023-01-11T07:42:10.473Z,6.89
2023-01-11T07:47:12.082Z,6.69
2023-01-11T07:52:13.743Z,7.48
2023-01-11T07:57:15.342Z,7.55
2023-01-11T08:02:20.107Z,7.65
2023-01-11T08:07:21.747Z,7.69
2023-01-11T08:12:42.130Z,7.72
2023-01-11T08:17:43.735Z,7.86
2023-01-11T08:22:45.390Z,7.92
2023-01-11T08:27:46.992Z,7.84
2023-01-11T08:32:48.665Z,7.90
2023-01-11T08:37:50.291Z,8.26
2023-01-11T08:42:56.711Z,8.46
2023-01-11T08:47:59.726Z,8.43
2023-01-11T08:53:01.328Z,8.61
2023-01-11T08:58:03.108Z,8.70
2023-01-11T09:03:04.761Z,8.81
2023-01-11T09:08:07.700Z,8.76
2023-01-11T09:13:09.307Z,8.74
2023-01-11T09:18:10.897Z,9.03
2023-01-11T09:23:12.499Z,8.70
2023-01-11T09:28:14.196Z,8.83
2023-01-11T09:33:15.850Z,9.04
2023-01-11T09:38:17.667Z,8.86
2023-01-11T09:43:24.868Z,9.06
2023-01-11T09:48:37.799Z,9.06
2023-01-11T09:53:40.857Z,9.16
2023-01-11T09:59:00.252Z,9.24
2023-01-11T10:04:15.994Z,9.33
2023-01-11T10:18:28.495Z,9.46
2023-01-11T10:21:19.686Z,9.50
2023-01-11T10:26:28.422Z,9.54
2023-01-11T11:30:46.915Z,9.65
2023-01-11T11:35:56.668Z,9.78
2023-01-11T11:41:06.871Z,9.79
2023-01-11T11:46:18.656Z,9.62
2023-01-11T11:51:23.364Z,9.28
2023-01-11T11:56:29.180Z,9.20
2023-01-11T12:01:34.195Z,9.25
2023-01-11T12:06:35.917Z,9.10
2023-01-11T12:11:42.152Z,9.15
2023-01-11T12:16:45.509Z,9.28
2023-01-11T12:21:47.157Z,9.37
2023-01-11T12:26:58.031Z,9.56
2023-01-11T12:32:21.217Z,9.81
2023-01-11T12:37:43.862Z,10.02
2023-01-11T12:43:22.187Z,9.96
2023-01-11T12:48:51.047Z,9.94
2023-01-11T12:54:06.976Z,9.88
2023-01-11T12:59:08.533Z,9.94
2023-01-11T13:04:25.224Z,9.91
2023-01-11T13:09:49.674Z,9.90
2023-01-11T13:15:23.814Z,9.89
2023-01-11T13:21:07.283Z,9.88
2023-01-11T13:26:30.939Z,9.79
2023-01-11T13:31:34.895Z,9.80
2023-01-11T13:36:43.491Z,9.77
2023-01-11T13:41:49.815Z,9.74
2023-01-11T13:47:13.322Z,9.64
2023-01-11T13:52:17.956Z,9.52
2023-01-11T13:57:31.913Z,9.36
2023-01-11T14:02:42.244Z,9.27
2023-01-11T14:08:00.864Z,9.23
2023-01-11T14:13:47.853Z,9.14
2023-01-11T14:19:05.341Z,8.99
2023-01-11T14:24:09.172Z,8.85
2023-01-11T14:29:26.967Z,8.74
2023-01-11T14:35:07.779Z,8.75
2023-01-11T14:40:24.334Z,8.79
2023-01-11T14:45:50.503Z,8.81
2023-01-11T14:51:09.546Z,8.78
2023-01-11T14:56:46.425Z,8.77
2023-01-11T15:02:07.712Z,8.76
2023-01-11T15:07:30.958Z,8.76
2023-01-11T15:12:38.550Z,8.84
2023-01-11T15:18:00.232Z,8.85
2023-01-11T15:23:04.666Z,8.89
2023-01-11T15:28:43.051Z,8.92
2023-01-11T15:33:49.082Z,8.94
2023-01-11T15:39:07.076Z,8.90
2023-01-11T15:44:33.437Z,8.82
2023-01-11T15:49:34.995Z,8.80
2023-01-11T15:55:11.132Z,8.81
2023-01-11T16:00:31.084Z,8.86
2023-01-11T16:05:39.804Z,8.88
2023-01-11T16:11:08.481Z,8.86
2023-01-11T16:16:22.765Z,8.86
2023-01-11T16:21:33.633Z,8.83
2023-01-11T16:26:40.928Z,8.77
2023-01-11T16:32:06.937Z,8.79
2023-01-11T16:37:31.615Z,8.86
2023-01-11T16:42:38.722Z,8.76
2023-01-11T16:47:40.436Z,8.82
2023-01-11T16:53:06.196Z,8.80
2023-01-11T16:58:25.634Z,8.82
2023-01-11T17:03:51.566Z,8.81
2023-01-11T17:08:56.421Z,8.85
2023-01-11T17:14:25.658Z,8.94
2023-01-11T17:19:30.893Z,8.79
2023-01-11T17:24:39.956Z,8.72
2023-01-11T17:29:42.927Z,8.70
2023-01-11T17:34:45.136Z,8.75
2023-01-11T17:39:50.081Z,8.83
2023-01-11T17:45:12.870Z,8.77
2023-01-11T17:50:26.681Z,8.70
2023-01-11T17:55:28.325Z,8.78
2023-01-11T18:00:29.993Z,8.75
2023-01-11T18:05:31.617Z,8.72
2023-01-11T18:10:39.344Z,8.72
2023-01-11T18:15:47.277Z,8.74
2023-01-11T18:20:49.050Z,8.68
2023-01-11T18:26:10.639Z,8.82
2023-01-11T18:31:12.400Z,8.79
2023-01-11T18:36:22.120Z,8.76
2023-01-11T18:41:44.530Z,8.72
2023-01-11T18:46:46.388Z,8.62
2023-01-11T18:51:48.008Z,8.61
2023-01-11T18:56:49.642Z,8.68
2023-01-11T19:02:04.509Z,8.69
2023-01-11T19:07:14.278Z,8.64
2023-01-11T19:12:16.584Z,8.60
2023-01-11T19:17:18.388Z,8.63
2023-01-11T19:22:23.347Z,8.51
2023-01-11T19:27:27.995Z,8.72
2023-01-11T19:32:29.630Z,8.64
2023-01-11T19:37:32.466Z,8.61
2023-01-11T19:42:34.171Z,8.68
2023-01-11T19:47:35.799Z,8.57
2023-01-11T19:52:37.415Z,8.62
2023-01-11T19:57:40.813Z,8.67
2023-01-11T20:02:42.638Z,8.65
2023-01-11T20:07:44.317Z,8.57
2023-01-11T20:12:47.369Z,8.57
2023-01-11T20:17:48.989Z,8.58
2023-01-11T20:22:51.103Z,8.48
2023-01-11T20:27:52.853Z,8.44
2023-01-11T20:32:54.475Z,8.46
2023-01-11T20:37:56.146Z,8.49
2023-01-11T20:42:57.816Z,8.49
2023-01-11T20:47:59.571Z,8.33
2023-01-11T20:53:01.219Z,8.27
2023-01-11T20:58:02.812Z,8.23
2023-01-11T21:03:04.504Z,8.29
2023-01-11T21:08:06.158Z,8.29
2023-01-11T21:18:09.268Z,8.28
2023-01-11T21:23:15.246Z,8.35
2023-01-11T21:28:16.793Z,8.32
2023-01-11T21:33:18.429Z,8.25
2023-01-11T21:38:20.032Z,8.20
2023-01-11T21:43:21.621Z,8.16
2023-01-11T21:48:23.381Z,8.03
2023-01-11T21:53:28.722Z,7.99
2023-01-11T21:58:30.369Z,7.93
2023-01-11T22:03:32.018Z,7.87
2023-01-11T22:08:38.576Z,7.72
2023-01-11T22:13:40.661Z,7.70
2023-01-11T22:18:43.951Z,7.64
2023-01-11T22:23:47.470Z,7.66
2023-01-11T22:29:12.008Z,7.56
2023-01-11T22:34:14.821Z,7.52
2023-01-11T22:39:19.351Z,7.43
2023-01-11T22:44:21.167Z,7.34
2023-01-11T22:49:22.764Z,7.32
2023-01-11T22:54:24.435Z,7.24
2023-01-11T22:59:26.056Z,7.10
2023-01-11T23:04:27.675Z,7.12
2023-01-11T23:09:29.254Z,7.11
2023-01-11T23:14:32.926Z,7.03
2023-01-11T23:19:37.249Z,6.97
2023-01-11T23:24:39.094Z,6.90
2023-01-11T23:29:40.677Z,7.01
2023-01-11T23:34:42.294Z,7.05
2023-01-11T23:39:43.940Z,6.88
2023-01-11T23:44:46.997Z,6.95
2023-01-11T23:49:49.968Z,6.89
2023-01-11T23:54:52.135Z,7.00
2023-01-11T23:59:53.733Z,6.92
